Hindman, Kentucky
Current Conditions -  °F | °C
As of 1:53 AM on Tuesday 21 Oct 2014 (Local Time) from KJKL Reporting Station
Overcast Overcast  
Wind Chill: 51°   Ceiling: 6500
Heat Index: 51°   Visibility: 10mi
Dew Point: 47°   Wind: 3mph
Humidity: 86%   Direction: NA
Pressure: 29.96"   Gusts: NA
Location:  37.34°N, 82.98°W
Report Text: KJKL 210553Z AUTO VRB03KT 10SM FEW044 BKN065 OVC100 11/08 A2996 RMK AO2 RAB0456E19 SLP142 P0000 60000 T01060083 10122 20100 57004
Loading
Personal Weather Stations






























Interactive Weather Map
Tropical Storm Tracking
New forecast layout! Learn more

10-Day Weather Forecast

Advertisements
Track Severe Weather on mobile